createdAt,value
2022-08-14T00:00:13.977Z,100.40
2022-08-14T00:02:44.898Z,96.53
2022-08-14T00:05:25.412Z,88.85
2022-08-14T00:07:55.842Z,96.97
2022-08-14T00:10:51.306Z,91.75
2022-08-14T00:13:21.373Z,101.63
2022-08-14T00:15:54.315Z,99.53
2022-08-14T00:19:05.393Z,92.85
2022-08-14T00:21:17.025Z,98.60
2022-08-14T00:23:54.088Z,90.70
2022-08-14T00:26:23.723Z,92.72
2022-08-14T00:28:54.624Z,90.32
2022-08-14T00:31:35.331Z,94.45
2022-08-14T00:34:36.063Z,93.78
2022-08-14T00:37:05.709Z,89.07
2022-08-14T00:39:35.069Z,91.55
2022-08-14T00:42:05.714Z,88.03
2022-08-14T00:44:35.220Z,90.45
2022-08-14T00:47:10.864Z,94.75
2022-08-14T00:49:43.351Z,91.55
2022-08-14T00:52:18.247Z,90.45
2022-08-14T00:54:58.222Z,95.53
2022-08-14T00:57:30.548Z,95.93
2022-08-14T01:00:01.143Z,91.32
2022-08-14T01:02:32.353Z,96.68
2022-08-14T01:05:07.880Z,89.53
2022-08-14T01:07:47.399Z,92.03
2022-08-14T01:10:23.928Z,91.70
2022-08-14T01:13:07.066Z,103.30
2022-08-14T01:15:57.879Z,97.53
2022-08-14T01:18:57.840Z,90.85
2022-08-14T01:21:38.779Z,98.78
2022-08-14T01:24:24.822Z,93.57
2022-08-14T01:27:00.988Z,99.55
2022-08-14T01:29:52.764Z,103.07
2022-08-14T01:32:29.918Z,93.43
2022-08-14T01:35:20.114Z,105.97
2022-08-14T01:37:56.443Z,107.50
2022-08-14T01:40:37.058Z,119.13
2022-08-14T01:43:18.947Z,108.57
2022-08-14T01:45:57.838Z,108.70
2022-08-14T01:48:37.864Z,107.50
2022-08-14T01:51:19.132Z,108.82
2022-08-14T01:53:55.886Z,116.22
2022-08-14T01:56:38.968Z,118.95
2022-08-14T01:59:18.107Z,110.95
2022-08-14T02:01:58.438Z,114.13
2022-08-14T02:04:56.236Z,115.10
2022-08-14T02:07:34.304Z,122.13
2022-08-14T02:10:16.637Z,114.30
2022-08-14T02:12:56.893Z,116.30
2022-08-14T02:15:27.199Z,107.00
2022-08-14T02:17:56.670Z,119.55
2022-08-14T02:20:34.086Z,119.50
2022-08-14T02:23:05.645Z,120.22
2022-08-14T02:25:39.533Z,114.97
2022-08-14T02:28:24.609Z,115.60
2022-08-14T02:30:58.404Z,115.20
2022-08-14T02:33:29.429Z,114.57
2022-08-14T02:37:02.563Z,116.63
2022-08-14T02:38:53.058Z,120.13
2022-08-14T02:41:26.340Z,115.03
2022-08-14T02:44:00.677Z,119.18
2022-08-14T02:49:06.278Z,116.80
2022-08-14T02:51:37.336Z,115.57
2022-08-14T02:54:09.206Z,125.30
2022-08-14T02:57:15.966Z,120.50
2022-08-14T02:59:33.869Z,129.38
2022-08-14T03:02:05.276Z,116.35
2022-08-14T03:04:35.046Z,117.90
2022-08-14T03:07:07.463Z,116.30
2022-08-14T03:10:26.930Z,117.75
2022-08-14T03:12:32.842Z,128.68
2022-08-14T03:15:16.225Z,108.05
2022-08-14T03:17:56.334Z,115.03
2022-08-14T03:20:29.000Z,126.32
2022-08-14T03:23:03.103Z,122.97
2022-08-14T03:25:37.697Z,123.72
2022-08-14T03:28:14.356Z,120.57
2022-08-14T03:30:44.213Z,118.57
2022-08-14T03:33:15.539Z,118.88
2022-08-14T03:36:00.217Z,119.00
2022-08-14T03:39:13.316Z,114.22
2022-08-14T03:41:33.072Z,120.45
2022-08-14T03:45:19.013Z,123.78
2022-08-14T03:47:03.577Z,115.15
2022-08-14T03:49:33.928Z,115.05
2022-08-14T03:52:07.877Z,117.93
2022-08-14T03:55:01.199Z,112.90
2022-08-14T03:57:37.042Z,115.15
2022-08-14T04:00:42.974Z,110.70
2022-08-14T04:03:02.818Z,125.25
2022-08-14T04:05:42.550Z,126.28
2022-08-14T04:08:29.729Z,113.65
2022-08-14T04:11:02.700Z,118.78
2022-08-14T04:13:34.097Z,130.27
2022-08-14T04:16:12.371Z,120.72
2022-08-14T04:18:43.480Z,114.20
2022-08-14T04:21:13.817Z,116.93
2022-08-14T04:23:45.674Z,114.68
2022-08-14T04:26:42.352Z,122.78
2022-08-14T04:29:15.563Z,111.88
2022-08-14T04:33:01.662Z,120.07
2022-08-14T04:34:41.832Z,112.88
2022-08-14T04:37:29.402Z,130.32
2022-08-14T04:40:17.054Z,113.32
2022-08-14T04:43:03.651Z,121.18
2022-08-14T04:45:40.840Z,123.82
2022-08-14T04:48:39.112Z,114.70
2022-08-14T04:51:06.379Z,117.55
2022-08-14T04:53:42.910Z,121.47
2022-08-14T04:56:31.645Z,112.93
2022-08-14T04:59:09.755Z,108.78
2022-08-14T05:01:47.913Z,111.82
2022-08-14T05:04:21.763Z,119.65
2022-08-14T05:06:53.649Z,120.53
2022-08-14T05:09:28.911Z,116.88
2022-08-14T05:13:10.785Z,119.55
2022-08-14T05:14:55.247Z,123.13
2022-08-14T05:17:32.220Z,120.68
2022-08-14T05:21:57.613Z,109.22
2022-08-14T05:23:04.683Z,122.18
2022-08-14T05:25:34.397Z,122.82
2022-08-14T05:28:16.286Z,123.47
2022-08-14T05:30:46.855Z,114.97
2022-08-14T05:33:18.658Z,107.90
2022-08-14T05:35:51.057Z,122.10
2022-08-14T05:38:31.190Z,109.70
2022-08-14T05:41:02.957Z,111.75
2022-08-14T05:43:41.595Z,124.72
2022-08-14T05:46:15.134Z,108.70
2022-08-14T05:48:45.517Z,106.95
2022-08-14T05:51:17.067Z,113.10
2022-08-14T05:54:00.217Z,104.72
2022-08-14T05:56:31.232Z,115.70
2022-08-14T05:59:01.818Z,111.72
2022-08-14T06:01:31.802Z,115.05
2022-08-14T06:04:01.424Z,118.78
2022-08-14T06:09:09.665Z,111.85
2022-08-14T06:11:39.504Z,111.22
2022-08-14T06:14:12.377Z,112.75
2022-08-14T06:16:50.075Z,110.50
2022-08-14T06:19:23.372Z,114.45
2022-08-14T06:21:58.448Z,106.80
2022-08-14T06:24:30.588Z,109.13
2022-08-14T06:27:09.773Z,110.68
2022-08-14T06:29:40.408Z,111.22
2022-08-14T06:32:37.691Z,100.22
2022-08-14T06:35:04.755Z,106.88
2022-08-14T06:40:26.249Z,112.18
2022-08-14T06:43:00.198Z,107.85
2022-08-14T06:45:33.443Z,116.80
2022-08-14T06:48:06.057Z,117.35
2022-08-14T06:50:35.791Z,112.70
2022-08-14T06:53:07.409Z,106.47
2022-08-14T06:55:40.785Z,119.97
2022-08-14T06:58:28.551Z,103.53
2022-08-14T07:01:18.409Z,101.70
2022-08-14T07:04:18.912Z,93.43
2022-08-14T07:06:55.465Z,95.93
2022-08-14T07:09:43.521Z,99.68
2022-08-14T07:12:34.870Z,111.30
2022-08-14T07:15:04.967Z,103.93
2022-08-14T07:17:36.265Z,83.13
2022-08-14T07:20:07.637Z,85.93
2022-08-14T07:22:56.029Z,68.03
2022-08-14T07:25:32.529Z,77.28
2022-08-14T07:28:09.699Z,72.07
2022-08-14T07:30:50.770Z,71.00
2022-08-14T07:33:29.264Z,55.10
2022-08-14T07:36:25.468Z,52.38
2022-08-14T07:38:53.982Z,51.00
2022-08-14T07:41:24.927Z,51.28
2022-08-14T07:44:32.177Z,53.60
2022-08-14T07:46:53.887Z,56.28
2022-08-14T07:49:24.586Z,50.70
2022-08-14T07:51:53.829Z,55.05
2022-08-14T07:54:29.850Z,55.00
2022-08-14T07:57:11.924Z,53.65
2022-08-14T07:59:44.233Z,46.42
2022-08-14T08:02:18.836Z,52.65
2022-08-14T08:04:55.398Z,51.53
2022-08-14T08:07:31.895Z,56.97
2022-08-14T08:13:17.260Z,52.70
2022-08-14T08:15:49.157Z,59.28
2022-08-14T08:18:27.385Z,64.55
2022-08-14T08:21:00.232Z,66.22
2022-08-14T08:23:40.819Z,64.38
2022-08-14T08:26:12.935Z,65.82
2022-08-14T08:28:45.208Z,74.95
2022-08-14T08:31:14.572Z,70.55
2022-08-14T08:33:46.957Z,80.93
2022-08-14T08:36:19.194Z,73.05
2022-08-14T08:39:14.587Z,84.53
2022-08-14T08:41:50.463Z,97.88
2022-08-14T08:44:31.914Z,76.43
2022-08-14T08:47:06.507Z,78.85
2022-08-14T08:49:48.382Z,81.63
2022-08-14T08:52:25.456Z,109.45
2022-08-14T08:54:58.838Z,97.38
2022-08-14T08:57:28.385Z,93.85
2022-08-14T09:00:09.876Z,131.50
2022-08-14T09:03:04.113Z,128.32
2022-08-14T09:05:36.762Z,121.38
2022-08-14T09:08:30.953Z,97.47
2022-08-14T09:11:18.851Z,86.93
2022-08-14T09:13:52.545Z,80.28
2022-08-14T09:16:26.347Z,73.82
2022-08-14T09:18:56.150Z,78.07
2022-08-14T09:21:31.425Z,67.78
2022-08-14T09:24:26.491Z,75.88
2022-08-14T09:26:52.596Z,62.90
2022-08-14T09:29:23.012Z,76.38
2022-08-14T09:31:58.259Z,78.45
2022-08-14T09:34:58.971Z,85.65
2022-08-14T09:37:53.924Z,82.72
2022-08-14T09:40:42.219Z,68.32
2022-08-14T09:43:33.505Z,67.95
2022-08-14T09:46:09.153Z,68.38
2022-08-14T09:48:41.120Z,76.22
2022-08-14T09:51:25.460Z,73.95
2022-08-14T09:56:56.665Z,60.75
2022-08-14T09:59:46.230Z,74.60
2022-08-14T10:02:28.494Z,61.28
2022-08-14T10:05:05.150Z,60.65
2022-08-14T10:07:50.672Z,64.22
2022-08-14T10:10:34.792Z,69.88
2022-08-14T10:13:06.957Z,67.15
2022-08-14T10:15:46.999Z,69.53
2022-08-14T10:18:22.006Z,68.40
2022-08-14T10:21:00.931Z,76.13
2022-08-14T10:23:44.603Z,90.57
2022-08-14T10:26:22.365Z,71.80
2022-08-14T10:29:18.874Z,83.63
2022-08-14T10:31:45.789Z,84.80
2022-08-14T10:34:21.201Z,90.32
2022-08-14T10:37:14.276Z,156.32
2022-08-14T10:39:51.428Z,128.20
2022-08-14T10:42:40.419Z,172.40
2022-08-14T10:45:21.938Z,125.00
2022-08-14T10:48:09.084Z,134.45
2022-08-14T10:50:45.921Z,237.13
2022-08-14T10:53:18.051Z,129.18
2022-08-14T10:55:48.595Z,263.85
2022-08-14T10:58:32.936Z,247.30
2022-08-14T11:01:08.057Z,161.30
2022-08-14T11:03:56.949Z,266.27
2022-08-14T11:06:27.219Z,434.80
2022-08-14T11:08:58.595Z,380.67
2022-08-14T11:11:28.516Z,155.38
2022-08-14T11:14:09.475Z,188.35
2022-08-14T11:16:40.653Z,279.23
2022-08-14T11:19:11.366Z,458.95
2022-08-14T11:21:45.786Z,428.95
2022-08-14T11:24:50.516Z,461.05
2022-08-14T11:27:09.601Z,412.88
2022-08-14T11:29:41.584Z,441.73
2022-08-14T11:32:11.172Z,443.98
2022-08-14T11:34:40.662Z,391.73
2022-08-14T11:37:19.330Z,396.13
2022-08-14T11:39:55.603Z,432.52
2022-08-14T11:42:56.702Z,386.88
2022-08-14T11:45:23.100Z,193.45
2022-08-14T11:48:12.740Z,403.00
2022-08-14T11:50:44.892Z,343.80
2022-08-14T11:53:25.385Z,271.85
2022-08-14T11:55:59.500Z,248.93
2022-08-14T11:58:31.351Z,203.70
2022-08-14T12:01:06.861Z,318.13
2022-08-14T12:03:51.169Z,201.52
2022-08-14T12:06:28.619Z,203.57
2022-08-14T12:09:14.939Z,205.88
2022-08-14T12:11:47.239Z,181.13
2022-08-14T12:14:29.764Z,145.35
2022-08-14T12:17:04.214Z,138.88
2022-08-14T12:19:51.263Z,141.48
2022-08-14T12:22:35.806Z,139.75
2022-08-14T12:25:11.492Z,124.40
2022-08-14T12:27:52.544Z,170.48
2022-08-14T12:33:30.601Z,171.32
2022-08-14T12:36:05.551Z,187.50
2022-08-14T12:38:38.954Z,170.68
2022-08-14T12:41:20.243Z,197.65
2022-08-14T12:43:56.793Z,169.70
2022-08-14T12:46:31.737Z,159.10
2022-08-14T12:49:06.567Z,167.52
2022-08-14T12:51:36.298Z,162.70
2022-08-14T12:54:26.064Z,179.52
2022-08-14T12:57:07.290Z,157.88
2022-08-14T12:59:42.744Z,196.20
2022-08-14T13:02:25.291Z,166.70
2022-08-14T13:04:58.148Z,171.73
2022-08-14T13:07:32.604Z,163.65
2022-08-14T13:10:47.813Z,174.05
2022-08-14T13:13:13.026Z,161.27
2022-08-14T13:15:46.506Z,181.75
2022-08-14T13:18:17.755Z,188.88
2022-08-14T13:20:57.641Z,187.00
2022-08-14T13:23:32.033Z,186.88
2022-08-14T13:26:02.811Z,188.73
2022-08-14T13:28:41.338Z,193.63
2022-08-14T13:31:30.346Z,176.45
2022-08-14T13:34:00.294Z,181.05
2022-08-14T13:36:54.389Z,178.98
2022-08-14T13:39:22.269Z,151.05
2022-08-14T13:41:56.038Z,162.90
2022-08-14T13:44:29.054Z,164.75
2022-08-14T13:47:00.183Z,172.88
2022-08-14T13:49:33.212Z,164.43
2022-08-14T13:52:48.232Z,172.60
2022-08-14T13:54:59.640Z,167.20
2022-08-14T13:57:33.394Z,202.43
2022-08-14T14:00:08.634Z,208.07
2022-08-14T14:02:46.391Z,158.05
2022-08-14T14:05:19.414Z,164.20
2022-08-14T14:07:54.113Z,152.68
2022-08-14T14:10:28.479Z,161.90
2022-08-14T14:12:58.176Z,150.30
2022-08-14T14:15:33.866Z,174.27
2022-08-14T14:18:33.855Z,191.15
2022-08-14T14:21:06.640Z,176.15
2022-08-14T14:23:39.759Z,170.80
2022-08-14T14:26:13.759Z,155.18
2022-08-14T14:28:50.623Z,152.50
2022-08-14T14:31:29.649Z,144.90
2022-08-14T14:34:07.493Z,161.60
2022-08-14T14:39:25.544Z,144.73
2022-08-14T14:42:00.698Z,167.60
2022-08-14T14:44:40.568Z,168.85
2022-08-14T14:47:12.005Z,176.68
2022-08-14T14:49:54.739Z,182.23
2022-08-14T14:52:27.076Z,191.82
2022-08-14T14:54:58.990Z,166.88
2022-08-14T14:57:35.568Z,170.47
2022-08-14T15:00:12.947Z,174.80
2022-08-14T15:02:44.531Z,186.45
2022-08-14T15:05:19.071Z,149.05
2022-08-14T15:07:54.006Z,134.23
2022-08-14T15:10:27.929Z,130.70
2022-08-14T15:13:04.036Z,131.13
2022-08-14T15:15:37.150Z,139.13
2022-08-14T15:18:36.772Z,120.60
2022-08-14T15:21:02.703Z,122.82
2022-08-14T15:23:44.230Z,124.88
2022-08-14T15:26:24.088Z,127.78
2022-08-14T15:29:05.182Z,126.93
2022-08-14T15:31:37.203Z,118.82
2022-08-14T15:34:44.656Z,99.60
2022-08-14T15:37:12.793Z,112.20
2022-08-14T15:39:42.993Z,96.72
2022-08-14T15:42:15.794Z,96.93
2022-08-14T15:44:58.316Z,113.75
2022-08-14T15:47:33.181Z,118.60
2022-08-14T15:50:08.775Z,107.85
2022-08-14T15:52:43.248Z,93.35
2022-08-14T15:55:16.406Z,96.07
2022-08-14T15:58:01.338Z,95.80
2022-08-14T16:00:51.859Z,96.93
2022-08-14T16:03:24.797Z,84.95
2022-08-14T16:05:57.303Z,108.95
2022-08-14T16:08:30.109Z,131.30
2022-08-14T16:11:01.977Z,91.80
2022-08-14T16:13:39.204Z,167.85
2022-08-14T16:16:51.082Z,133.82
2022-08-14T16:19:11.247Z,116.55
2022-08-14T16:22:01.295Z,184.52
2022-08-14T16:25:01.929Z,180.55
2022-08-14T16:27:37.071Z,116.07
2022-08-14T16:30:20.691Z,160.43
2022-08-14T16:32:56.752Z,119.07
2022-08-14T16:35:42.291Z,122.43
2022-08-14T16:38:46.338Z,128.85
2022-08-14T16:41:22.866Z,192.68
2022-08-14T16:44:01.436Z,139.00
2022-08-14T16:46:38.327Z,113.60
2022-08-14T16:49:16.248Z,95.85
2022-08-14T16:51:51.390Z,101.85
2022-08-14T16:54:35.345Z,105.75
2022-08-14T16:57:22.463Z,95.03
2022-08-14T16:59:57.771Z,94.38
2022-08-14T17:02:39.118Z,91.15
2022-08-14T17:05:21.968Z,97.72
2022-08-14T17:08:31.644Z,136.25
2022-08-14T17:11:11.031Z,89.53
2022-08-14T17:13:57.882Z,95.68
2022-08-14T17:16:37.472Z,96.32
2022-08-14T17:19:09.749Z,122.82
2022-08-14T17:21:47.007Z,98.30
2022-08-14T17:24:56.985Z,104.65
2022-08-14T17:30:00.255Z,97.63
2022-08-14T17:32:44.542Z,103.45
2022-08-14T17:35:57.553Z,106.05
2022-08-14T17:41:32.710Z,103.15
2022-08-14T17:44:34.103Z,97.72
2022-08-14T17:47:14.510Z,92.53
2022-08-14T17:49:51.981Z,93.90
2022-08-14T17:52:34.285Z,89.45
2022-08-14T17:55:09.947Z,92.70
2022-08-14T17:57:43.726Z,87.68
2022-08-14T18:00:17.858Z,89.65
2022-08-14T18:02:51.233Z,95.18
2022-08-14T18:06:07.730Z,102.30
2022-08-14T18:08:32.612Z,86.45
2022-08-14T18:11:04.142Z,88.20
2022-08-14T18:13:51.890Z,92.55
2022-08-14T18:16:23.046Z,89.88
2022-08-14T18:18:53.985Z,84.25
2022-08-14T18:21:41.927Z,88.25
2022-08-14T18:24:28.221Z,84.75
2022-08-14T18:27:09.432Z,92.93
2022-08-14T18:29:54.998Z,86.93
2022-08-14T18:32:47.280Z,84.68
2022-08-14T18:35:21.070Z,83.55
2022-08-14T18:37:55.460Z,82.82
2022-08-14T18:40:35.096Z,83.50
2022-08-14T18:43:07.412Z,103.90
2022-08-14T18:45:41.491Z,87.70
2022-08-14T18:48:50.084Z,85.15
2022-08-14T18:51:45.350Z,81.93
2022-08-14T18:54:33.009Z,98.03
2022-08-14T18:57:05.682Z,91.38
2022-08-14T18:59:42.304Z,90.75
2022-08-14T19:02:44.182Z,100.63
2022-08-14T19:05:15.128Z,96.60
2022-08-14T19:07:48.384Z,87.97
2022-08-14T19:10:37.252Z,86.10
2022-08-14T19:13:12.931Z,90.43
2022-08-14T19:15:56.066Z,90.30
2022-08-14T19:18:28.876Z,95.55
2022-08-14T19:21:01.637Z,86.10
2022-08-14T19:23:44.100Z,89.80
2022-08-14T19:26:35.875Z,103.45
2022-08-14T19:29:36.210Z,86.13
2022-08-14T19:32:41.007Z,82.30
2022-08-14T19:35:59.900Z,86.82
2022-08-14T19:38:57.331Z,81.78
2022-08-14T19:41:30.462Z,81.20
2022-08-14T19:44:19.167Z,108.78
2022-08-14T19:47:01.755Z,75.10
2022-08-14T19:50:07.955Z,76.57
2022-08-14T19:52:30.015Z,71.78
2022-08-14T19:55:16.545Z,76.20
2022-08-14T19:57:52.294Z,71.38
2022-08-14T20:00:30.278Z,75.00
2022-08-14T20:03:10.905Z,77.07
2022-08-14T20:05:42.879Z,79.20
2022-08-14T20:11:01.368Z,78.80
2022-08-14T20:12:01.135Z,73.97
2022-08-14T20:14:20.370Z,77.97
2022-08-14T20:17:03.251Z,74.13
2022-08-14T20:19:37.225Z,89.68
2022-08-14T20:22:37.580Z,87.13
2022-08-14T20:25:15.245Z,76.60
2022-08-14T20:27:49.924Z,85.30
2022-08-14T20:30:34.671Z,73.95
2022-08-14T20:33:11.295Z,83.65
2022-08-14T20:35:49.343Z,86.80
2022-08-14T20:38:30.539Z,77.45
2022-08-14T20:43:58.611Z,72.25
2022-08-14T20:49:03.658Z,92.57
2022-08-14T20:51:47.346Z,78.95
2022-08-14T20:54:34.062Z,74.95
2022-08-14T20:57:12.056Z,76.25
2022-08-14T20:59:50.409Z,84.78
2022-08-14T21:02:46.508Z,79.85
2022-08-14T21:05:34.427Z,81.65
2022-08-14T21:08:08.368Z,93.40
2022-08-14T21:10:54.967Z,91.90
2022-08-14T21:14:19.481Z,89.07
2022-08-14T21:16:33.003Z,84.30
2022-08-14T21:19:06.002Z,80.55
2022-08-14T21:21:41.840Z,83.15
2022-08-14T21:24:38.725Z,88.70
2022-08-14T21:27:13.003Z,84.05
2022-08-14T21:29:55.056Z,73.20
2022-08-14T21:32:46.958Z,80.22
2022-08-14T21:35:22.987Z,73.75
2022-08-14T21:37:53.933Z,81.90
2022-08-14T21:40:40.278Z,80.53
2022-08-14T21:43:17.925Z,69.75
2022-08-14T21:45:53.384Z,81.07
2022-08-14T21:48:29.272Z,83.68
2022-08-14T21:51:53.578Z,79.50
2022-08-14T21:54:00.261Z,75.75
2022-08-14T21:56:38.866Z,75.07
2022-08-14T21:59:18.087Z,79.65
2022-08-14T22:02:01.975Z,79.60
2022-08-14T22:04:40.439Z,81.45
2022-08-14T22:07:17.067Z,79.47
2022-08-14T22:09:55.521Z,73.22
2022-08-14T22:12:58.736Z,79.07
2022-08-14T22:15:19.158Z,81.25
2022-08-14T22:17:55.228Z,76.15
2022-08-14T22:20:29.562Z,82.20
2022-08-14T22:23:05.536Z,78.38
2022-08-14T22:25:41.230Z,77.65
2022-08-14T22:28:17.910Z,82.63
2022-08-14T22:30:55.293Z,78.40
2022-08-14T22:33:31.306Z,79.72
2022-08-14T22:36:25.616Z,79.28
2022-08-14T22:38:57.634Z,82.30
2022-08-14T22:41:32.654Z,75.25
2022-08-14T22:44:11.210Z,92.18
2022-08-14T22:46:43.271Z,79.97
2022-08-14T22:52:49.331Z,85.82
2022-08-14T22:55:05.968Z,88.97
2022-08-14T22:57:37.886Z,86.93
2022-08-14T23:00:25.374Z,90.75
2022-08-14T23:03:04.144Z,103.75
2022-08-14T23:05:38.816Z,89.30
2022-08-14T23:08:56.277Z,83.82
2022-08-14T23:11:10.317Z,94.47
2022-08-14T23:13:43.598Z,108.40
2022-08-14T23:16:20.085Z,99.28
2022-08-14T23:18:53.633Z,108.65
2022-08-14T23:21:28.718Z,120.00
2022-08-14T23:23:59.906Z,124.50
2022-08-14T23:26:49.449Z,103.88
2022-08-14T23:29:25.094Z,116.68
2022-08-14T23:31:56.884Z,113.53
2022-08-14T23:34:29.588Z,100.47
2022-08-14T23:37:03.694Z,99.05
2022-08-14T23:39:35.447Z,131.82
2022-08-14T23:42:12.045Z,115.78
2022-08-14T23:44:47.597Z,111.05
2022-08-14T23:47:26.806Z,106.95
2022-08-14T23:50:03.651Z,111.95
2022-08-14T23:52:51.160Z,173.05
2022-08-14T23:55:33.287Z,138.15
2022-08-14T23:58:03.907Z,126.47
